Seattle, WA

11:50 AM PST on February 19, 2017 (GMT -0800)
Seattle-Tacoma International | | Change Station
Active Advisory: Small Craft Advisory

Elev 427 ft 47.45 °N, 122.31 °W | Updated 57 minutes ago

Light Rain
Light Rain
45 °F
Feels Like 41 °F
N
8
Wind Variable Wind from South

Today
High -- | Low -- °F
--% Chance of Precip.
Yesterday
High -- | Low -- °F
Precip. -- in
Pressure 29.49 in
Visibility 9.0 miles
Clouds Mostly Cloudy 4100 ft
Mostly Cloudy 4900 ft
Overcast 6000 ft
Windchill 41 °F
Dew Point 40 °F
Humidity 82%
Rainfall 0.04 in
Snow Depth Not available.
7:07 AM 5:39 PM
Last Quarter, 41% visible
METAR KSEA 191853Z 19007KT 9SM -RA BKN041 BKN049 OVC060 07/04 A2946 RMK AO2 RAB51 SLP985 P0000 T00720044 $
Pressure 29.49 in
Visibility 9.0 miles
Clouds Mostly Cloudy 4100 ft
Mostly Cloudy 4900 ft
Overcast 6000 ft
Windchill 41 °F
Dew Point 40 °F
Humidity 82%
Rainfall 0.04 in
Snow Depth Not available.
7:07 AM 5:39 PM
Last Quarter, 41% visible
METAR KSEA 191853Z 19007KT 9SM -RA BKN041 BKN049 OVC060 07/04 A2946 RMK AO2 RAB51 SLP985 P0000 T00720044 $

Get Your Daily Forecast Email!

Thanks for signing up!

Be on the lookout for a verification email in your inbox.

You'll start receiving the daily forecast at 8 AM.

×

10-Day Weather Forecast

Almanac

Astronomy

Feb. 19, 2017 Rise Set
Actual Time
Civil Twilight
Nautical Twilight
Astronomical Twilight
Moon
Length of Visible Light
Length of Day
Tomorrow will be .
, % of the Moon is Illuminated

Today's Extremes

State Highs State Lows

Community

WunderPhotos

Upload Photos

1,962,540 photos uploaded!

WunderBlog® & News

Nearby

Air Quality

  Air Quality AQ Index Pollutant
Not available.

Snow Depth

Station Depth Elevation

Earthquake Activity

City Distance Mag. Time & Date
Minimum magnitude displayed is 2.5.

Coastal Water Temperatures

Place Temperature

Stations

Nearby Weather Stations

Station Location Temp. Windchill Dew Point Humidity Wind Precip. Elev Updated Type
                   

Watches & Warnings

Small Craft Advisory
Issued: 8:52 AM PST Feb. 19, 2017 – National Weather Service

... Small Craft Advisory now in effect until midnight PST tonight...

* winds... south 15 to 25 knots.

* Waves/seas... wind waves 2 to 4 feet.

Precautionary/preparedness actions...

A Small Craft Advisory means that wind speeds of 21 to 33 knots are
expected to produce hazardous wave conditions to small craft.
Inexperienced mariners... especially those operating smaller vessels
should avoid navigating in these conditions.